Latest Coastal Weather Observations for Rhyll

IDV60701

Issued at 3:21 am EST Monday 26 September 2016 (issued every 10 minutes, with the page automatically refreshed every 10 minutes)

About coastal observations | Map of coastal stations | Coastal observations for VIC | Marine services | Other Formats
Station Details ID: 086373 Name: RHYLL Lat: -38.46 Lon: 145.31 Height: 13.4 m
Data from the previous 72 hours. | See also: Recent months at Rhyll
Date/Time
EST
Temp
°C
Wind Pressure Rain since
9am
mm
Weather Cloud Vis
km
Sea
Height
m
Swell
Dir  Spd
kts
Gust
kts
hPa Trend Height
m
Period
s
Dir
26/03:00am 9.5 N 5 7 1012.7 - 0.0 - - - - - - -
26/02:30am 9.3 NNW 3 4 1013.1 - 0.0 - - - - - - -
26/02:00am 9.0 NW 3 4 1013.3 - 0.0 - - - - - - -
26/01:30am 9.5 NW 2 3 1013.3 - 0.0 - - - - - - -
26/01:00am 9.4 NW 2 4 1013.6 - 0.0 - - - - - - -
26/12:30am 9.8 NW 2 3 1013.8 - 0.0 - - - - - - -
26/12:00am 9.9 NNW 3 4 1013.8 - 0.0 - - - - - - -
 
Date/Time
EST
Temp
°C
Wind Pressure Rain since
9am
mm
Weather Cloud Vis
km
Sea
Height
m
Swell
Dir  Spd
kts
Gust
kts
hPa Trend Height
m
Period
s
Dir
25/11:30pm 9.7 W 2 3 1013.9 - 0.0 - - - - - - -
25/11:00pm 9.6 W 3 3 1014.1 - 0.0 - - - - - - -
25/10:30pm 10.0 WSW 3 4 1014.4 - 0.0 - - - - - - -
25/10:00pm 9.9 W 3 4 1014.4 - 0.0 - - - - - - -
25/09:30pm 10.1 SW 4 5 1014.2 - 0.0 - - - - - - -
25/09:00pm 10.4 WSW 3 5 1014.3 - 0.0 - - - - - - -
25/08:30pm 10.5 WSW 3 5 1014.2 - 0.0 - - - - - - -
25/08:00pm 10.5 WSW 3 5 1013.9 - 0.0 - - - - - - -
25/07:30pm 10.7 SW 5 6 1013.5 - 0.0 - - - - - - -
25/07:00pm 11.1 SW 5 8 1012.9 - 0.0 - - - - - - -
25/06:30pm 10.9 SW 4 7 1012.5 - 0.0 - - - - - - -
25/06:00pm 11.0 SW 4 7 1012.3 - 0.0 - - - - - - -
25/05:30pm 11.9 SW 6 9 1012.1 - 0.0 - - - - - - -
25/05:00pm 12.6 SW 8 14 1011.8 - 0.0 - - - - - - -
25/04:30pm 12.7 SW 10 16 1011.8 - 0.0 - - - - - - -
25/04:00pm 13.2 SW 8 13 1011.7 - 0.0 - - - - - - -
25/03:30pm 13.4 SW 10 14 1011.5 - 0.0 - - - - - - -
25/03:00pm 13.4 WSW 9 16 1011.6 - 0.0 - - - - - - -
25/02:30pm 13.3 WSW 8 15 1011.4 - 0.0 - - - - - - -
25/02:00pm 12.7 WSW 9 15 1011.4 - 0.0 - - - - - - -
25/01:30pm 12.5 WSW 11 19 1011.4 - 0.0 - - - - - - -
25/01:00pm 13.3 WSW 8 15 1011.4 - 0.0 - - - - - - -
25/12:30pm 14.0 SW 11 18 1011.3 - 0.0 - - - - - - -
25/12:00pm 13.5 WSW 9 16 1011.2 - 0.0 - - - - - - -
25/11:30am 12.4 WSW 8 16 1011.3 - 0.0 - - - - - - -
25/11:00am 12.8 WSW 8 14 1011.0 - 0.0 - - - - - - -
25/10:30am 13.3 W 9 17 1011.0 - 0.0 - - - - - - -
25/10:00am 13.0 WSW 9 17 1010.8 - 0.0 - - - - - - -
25/09:30am 12.1 WSW 9 19 1010.5 - 0.0 - - - - - - -
25/09:00am 12.5 W 7 14 1010.2 - 1.8 - - - - - - -
25/08:30am 12.5 W 9 17 1009.9 - 1.8 - - - - - - -
25/08:00am 12.4 W 8 16 1009.5 - 1.8 - - - - - - -
25/07:30am 11.8 W 5 11 1009.1 - 1.8 - - - - - - -
25/07:00am 10.8 W 6 9 1008.9 - 1.8 - - - - - - -
25/06:30am 11.2 WSW 6 11 1008.6 - 1.8 - - - - - - -
25/06:00am 10.8 W 4 8 1008.1 - 1.8 - - - - - - -
25/05:30am 10.8 W 6 9 1007.9 - 1.8 - - - - - - -
25/05:00am 11.3 WSW 8 14 1007.6 - 1.8 - - - - - - -
25/04:30am 11.4 W 5 8 1007.2 - 1.8 - - - - - - -
25/04:00am 11.1 WSW 6 10 1006.7 - 1.8 - - - - - - -
25/03:30am 11.0 WSW 5 9 1006.3 - 1.8 - - - - - - -
25/03:00am 11.2 WSW 5 9 1006.3 - 1.8 - - - - - - -
25/02:30am 11.1 W 5 8 1006.3 - 1.8 - - - - - - -
25/02:00am 10.8 SW 6 10 1006.3 - 1.8 - - - - - - -
25/01:30am 12.4 WNW 4 6 1006.3 - 1.0 - - - - - - -
25/01:00am 12.3 WNW 2 6 1006.2 - 0.8 - - - - - - -
25/12:30am 12.6 NNW 8 13 1006.2 - 0.0 - - - - - - -
25/12:00am 12.8 NW 8 14 1006.2 - 0.0 - - - - - - -
 
Date/Time
EST
Temp
°C
Wind Pressure Rain since
9am
mm
Weather Cloud Vis
km
Sea
Height
m
Swell
Dir  Spd
kts
Gust
kts
hPa Trend Height
m
Period
s
Dir
24/11:30pm 13.0 NW 5 10 1006.4 - 0.0 - - - - - - -
24/11:00pm 13.8 NW 6 10 1006.4 - 0.0 - - - - - - -
24/10:30pm 13.9 NW 5 10 1006.2 - 0.0 - - - - - - -
24/10:00pm 14.1 NNW 9 13 1006.1 - 0.0 - - - - - - -
24/09:30pm 14.5 NW 8 13 1006.3 - 0.0 - - - - - - -
24/09:00pm 14.9 NW 9 17 1006.3 - 0.0 - - - - - - -
24/08:30pm 15.1 NW 7 14 1006.2 - 0.0 - - - - - - -
24/08:00pm 15.4 NW 7 13 1006.1 - 0.0 - - - - - - -
24/07:30pm 15.8 NNW 12 16 1005.8 - 0.0 - - - - - - -
24/07:00pm 16.1 N 12 15 1005.8 - 0.0 - - - - - - -
24/06:30pm 16.2 N 12 15 1005.7 - 0.0 - - - - - - -
24/06:00pm 16.5 NNW 14 17 1005.6 - 0.0 - - - - - - -
24/05:30pm 16.4 NNW 12 14 1005.5 - 0.0 - - - - - - -
24/05:00pm 16.9 NNW 13 17 1005.3 - 0.0 - - - - - - -
24/04:30pm 16.8 NNW 14 17 1005.3 - 0.0 - - - - - - -
24/04:00pm 17.4 NNW 16 21 1005.3 - 0.0 - - - - - - -
24/03:30pm 18.0 NNW 16 21 1005.5 - 0.0 - - - - - - -
24/03:00pm 17.9 NNW 13 19 1005.5 - 0.0 - - - - - - -
24/02:30pm 17.9 NNW 13 19 1005.7 - 0.0 - - - - - - -
24/02:00pm 18.2 NNW 13 19 1006.1 - 0.0 - - - - - - -
24/01:30pm 18.2 NNW 14 20 1005.9 - 0.0 - - - - - - -
24/01:00pm 18.3 NNW 13 19 1006.2 - 0.0 - - - - - - -
24/12:30pm 17.8 NNW 16 20 1006.8 - 0.0 - - - - - - -
24/12:00pm 17.7 NNW 19 23 1007.2 - 0.0 - - - - - - -
24/11:30am 17.3 NNW 15 19 1007.5 - 0.0 - - - - - - -
24/11:00am 16.9 N 16 22 1007.8 - 0.0 - - - - - - -
24/10:30am 16.4 N 17 25 1008.2 - 0.0 - - - - - - -
24/10:00am 15.7 N 18 23 1008.8 - 0.0 - - - - - - -
24/09:30am 15.5 N 15 19 1009.4 - 0.0 - - - - - - -
24/09:00am 15.3 N 12 17 1009.6 - 0.0 - - - - - - -
24/08:30am 15.3 NNE 6 13 1009.8 - 0.0 - - - - - - -
24/08:00am 14.3 N 5 8 1009.9 - 0.0 - - - - - - -
24/07:30am 13.0 NNE 5 8 1010.0 - 0.0 - - - - - - -
24/07:00am 12.3 NNE 7 11 1010.0 - 0.0 - - - - - - -
24/06:30am 12.0 NNE 4 7 1010.0 - 0.0 - - - - - - -
24/06:00am 11.9 NNE 5 9 1009.8 - 0.0 - - - - - - -
24/05:30am 12.4 NNE 6 9 1009.8 - 0.0 - - - - - - -
24/05:00am 12.5 NNE 4 7 1009.8 - 0.0 - - - - - - -
24/04:30am 12.3 NNE 9 11 1009.7 - 0.0 - - - - - - -
24/04:00am 12.3 NE 10 12 1009.8 - 0.0 - - - - - - -
24/03:30am 12.3 NE 10 12 1010.0 - 0.0 - - - - - - -
24/03:00am 12.3 NE 10 13 1010.2 - 0.0 - - - - - - -
24/02:30am 12.2 NE 9 11 1010.5 - 0.0 - - - - - - -
24/02:00am 11.9 ENE 3 5 1010.9 - 0.0 - - - - - - -
24/01:30am 12.0 NNE 7 9 1011.1 - 0.0 - - - - - - -
24/01:00am 11.7 NNE 7 11 1011.1 - 0.0 - - - - - - -
24/12:30am 11.7 NNW 3 5 1011.2 - 0.0 - - - - - - -
24/12:00am 12.4 NNE 7 13 1011.0 - 0.0 - - - - - - -
 
Date/Time
EST
Temp
°C
Wind Pressure Rain since
9am
mm
Weather Cloud Vis
km
Sea
Height
m
Swell
Dir  Spd
kts
Gust
kts
hPa Trend Height
m
Period
s
Dir
23/11:30pm 12.2 NE 13 16 1010.9 - 0.0 - - - - - - -
23/11:00pm 12.2 ENE 11 13 1011.1 - 0.0 - - - - - - -
23/10:30pm 12.1 ENE 7 10 1011.5 - 0.0 - - - - - - -
23/10:00pm 11.9 ENE 5 6 1011.8 - 0.0 - - - - - - -
23/09:30pm 11.7 E 4 5 1012.0 - 0.0 - - - - - - -
23/09:00pm 12.2 E 4 4 1012.0 - 0.0 - - - - - - -
23/08:30pm 12.4 E 6 8 1012.0 - 0.0 - - - - - - -
23/08:00pm 12.9 E 9 11 1012.0 - 0.0 - - - - - - -
23/07:30pm 13.1 ESE 10 12 1012.0 - 0.0 - - - - - - -
23/07:00pm 13.4 ESE 8 9 1012.0 - 0.0 - - - - - - -
23/06:30pm 13.8 ESE 9 11 1011.7 - 0.0 - - - - - - -
23/06:00pm 14.1 SE 4 5 1011.5 - 0.0 - - - - - - -
23/05:30pm 13.8 SSE 5 6 1011.8 - 0.0 - - - - - - -
23/05:00pm 13.8 SSE 8 11 1011.8 - 0.0 - - - - - - -
23/04:30pm 13.6 SE 9 12 1011.8 - 0.0 - - - - - - -
23/04:00pm 14.3 SSE 9 11 1012.0 - 0.0 - - - - - - -
23/03:30pm 14.3 SSE 9 11 1012.3 - 0.0 - - - - - - -
23/03:00pm 14.5 SE 9 12 1012.6 - 0.0 - - - - - - -
23/02:30pm 14.5 SSE 9 13 1013.1 - 0.0 - - - - - - -
23/02:00pm 15.1 SSE 8 11 1013.4 - 0.0 - - - - - - -
23/01:30pm 14.9 SSE 8 11 1013.9 - 0.0 - - - - - - -
23/01:00pm 16.6 SSE 7 9 1014.4 - 0.0 - - - - - - -
23/12:30pm 16.6 S 4 7 1014.9 - 0.0 - - - - - - -
23/12:00pm 15.4 S 4 6 1015.3 - 0.0 - - - - - - -
23/11:30am 14.8 SE 3 5 1015.9 - 0.0 - - - - - - -
23/11:00am 14.3 ESE 5 7 1016.3 - 0.0 - - - - - - -
23/10:30am 13.6 SE 4 7 1016.8 - 0.0 - - - - - - -
23/10:00am 13.5 ESE 6 8 1017.1 - 0.0 - - - - - - -
23/09:30am 13.0 SE 5 7 1017.2 - 0.0 - - - - - - -
23/09:00am 12.9 ESE 7 9 1017.4 - 0.0 - - - - - - -
23/08:30am 12.6 ESE 6 9 1017.4 - 0.0 - - - - - - -
23/08:00am 12.3 SE 4 6 1017.5 - 0.0 - - - - - - -
23/07:30am 12.0 SE 3 4 1017.4 - 0.0 - - - - - - -
23/07:00am 11.5 SSE 3 5 1017.4 - 0.0 - - - - - - -
23/06:30am 11.3 SE 4 6 1017.2 - 0.0 - - - - - - -
23/06:00am 11.2 S 3 5 1017.1 - 0.0 - - - - - - -
23/05:30am 11.3 SSW 4 8 1017.2 - 0.0 - - - - - - -
23/05:00am 11.3 S 4 6 1017.1 - 0.0 - - - - - - -
23/04:30am 11.3 SSW 4 9 1016.9 - 0.0 - - - - - - -
23/04:00am 11.3 SSW 5 9 1017.0 - 0.0 - - - - - - -
23/03:30am 11.2 SW 4 6 1017.2 - 0.0 - - - - - - -

Other Formats:

Comma delimited format used in spreadsheet applications
http://www.bom.gov.au/fwo/IDV60701/IDV60701.94892.axf

JavaScript Object Notation format (JSON) in row-major order
http://www.bom.gov.au/fwo/IDV60701/IDV60701.94892.json